createdAt,value
2023-04-08T00:00:19.253Z,6.57
2023-04-08T00:02:46.637Z,7.32
2023-04-08T00:05:13.704Z,7.80
2023-04-08T00:07:40.605Z,8.18
2023-04-08T00:10:08.224Z,7.07
2023-04-08T00:12:35.267Z,7.82
2023-04-08T00:15:03.665Z,7.53
2023-04-08T00:17:30.893Z,7.70
2023-04-08T00:19:57.864Z,8.05
2023-04-08T00:22:24.820Z,8.20
2023-04-08T00:24:52.109Z,7.60
2023-04-08T00:27:18.983Z,8.23
2023-04-08T00:29:46.768Z,7.10
2023-04-08T00:32:14.013Z,7.55
2023-04-08T00:34:41.072Z,8.40
2023-04-08T00:37:07.990Z,8.85
2023-04-08T00:39:36.134Z,8.90
2023-04-08T00:42:03.422Z,8.32
2023-04-08T00:44:30.396Z,8.10
2023-04-08T00:46:57.677Z,9.45
2023-04-08T00:49:24.772Z,8.52
2023-04-08T00:51:54.631Z,8.60
2023-04-08T00:54:21.675Z,8.98
2023-04-08T00:56:49.016Z,9.55
2023-04-08T00:59:17.706Z,8.63
2023-04-08T01:01:57.414Z,9.43
2023-04-08T01:04:58.292Z,8.50
2023-04-08T01:07:37.864Z,8.48
2023-04-08T01:10:14.063Z,8.35
2023-04-08T01:12:48.502Z,8.07
2023-04-08T01:15:16.060Z,9.02
2023-04-08T01:17:44.775Z,9.88
2023-04-08T01:20:13.665Z,9.20
2023-04-08T01:22:43.695Z,8.48
2023-04-08T01:25:34.931Z,8.10
2023-04-08T01:28:06.020Z,9.75
2023-04-08T01:30:34.401Z,8.23
2023-04-08T01:33:03.112Z,9.23
2023-04-08T01:35:32.168Z,10.93
2023-04-08T01:38:01.546Z,9.10
2023-04-08T01:40:30.093Z,9.15
2023-04-08T01:42:58.624Z,8.15
2023-04-08T01:45:26.342Z,8.38
2023-04-08T01:47:54.134Z,8.48
2023-04-08T01:50:22.437Z,9.80
2023-04-08T01:52:53.106Z,9.88
2023-04-08T01:55:20.984Z,10.15
2023-04-08T01:57:53.434Z,10.82
2023-04-08T02:00:28.160Z,10.45
2023-04-08T02:02:56.134Z,10.10
2023-04-08T02:05:23.374Z,9.75
2023-04-08T02:07:50.969Z,10.43
2023-04-08T02:10:18.022Z,9.82
2023-04-08T02:12:46.037Z,9.25
2023-04-08T02:15:14.476Z,9.48
2023-04-08T02:17:53.746Z,10.43
2023-04-08T02:20:34.792Z,11.00
2023-04-08T02:23:03.232Z,9.25
2023-04-08T02:25:31.885Z,9.10
2023-04-08T02:28:00.662Z,10.35
2023-04-08T02:30:31.490Z,9.35
2023-04-08T02:32:59.473Z,9.52
2023-04-08T02:35:28.336Z,9.63
2023-04-08T02:37:55.373Z,10.90
2023-04-08T02:40:31.683Z,9.63
2023-04-08T02:42:59.294Z,12.20
2023-04-08T02:45:38.166Z,11.93
2023-04-08T02:48:06.478Z,9.90
2023-04-08T02:50:33.553Z,11.38
2023-04-08T02:53:00.670Z,11.50
2023-04-08T02:55:30.018Z,11.05
2023-04-08T02:57:57.072Z,10.88
2023-04-08T03:00:24.068Z,10.82
2023-04-08T03:02:51.315Z,11.25
2023-04-08T03:05:18.572Z,12.32
2023-04-08T03:07:45.792Z,11.65
2023-04-08T03:10:12.822Z,11.55
2023-04-08T03:12:39.704Z,11.48
2023-04-08T03:15:07.412Z,10.85
2023-04-08T03:17:34.812Z,11.73
2023-04-08T03:20:06.648Z,11.65
2023-04-08T03:22:34.388Z,11.25
2023-04-08T03:25:01.264Z,11.93
2023-04-08T03:27:29.131Z,11.10
2023-04-08T03:29:57.858Z,12.40
2023-04-08T03:32:25.050Z,10.88
2023-04-08T03:34:52.351Z,11.80
2023-04-08T03:37:19.565Z,11.38
2023-04-08T03:39:46.756Z,12.00
2023-04-08T03:42:13.794Z,11.52
2023-04-08T03:44:40.876Z,11.90
2023-04-08T03:47:09.170Z,11.85
2023-04-08T03:49:36.524Z,12.13
2023-04-08T03:52:03.560Z,12.18
2023-04-08T03:54:31.937Z,13.73
2023-04-08T03:56:58.851Z,12.98
2023-04-08T03:59:25.867Z,13.63
2023-04-08T04:01:53.751Z,13.40
2023-04-08T04:04:21.282Z,13.77
2023-04-08T04:06:48.647Z,12.95
2023-04-08T04:09:16.817Z,12.10
2023-04-08T04:11:44.814Z,14.02
2023-04-08T04:14:12.029Z,14.80
2023-04-08T04:16:38.976Z,13.38
2023-04-08T04:19:05.942Z,11.30
2023-04-08T04:21:33.105Z,13.15
2023-04-08T04:24:00.782Z,13.10
2023-04-08T04:26:27.808Z,13.35
2023-04-08T04:28:55.012Z,12.80
2023-04-08T04:31:26.424Z,12.75
2023-04-08T04:33:53.891Z,13.15
2023-04-08T04:36:21.244Z,13.55
2023-04-08T04:38:50.336Z,14.00
2023-04-08T04:41:18.952Z,14.48
2023-04-08T04:43:45.893Z,13.90
2023-04-08T04:46:13.000Z,16.45
2023-04-08T04:48:40.861Z,15.65
2023-04-08T04:51:07.928Z,16.15
2023-04-08T04:53:34.967Z,14.45
2023-04-08T04:56:02.334Z,15.05
2023-04-08T04:58:29.849Z,15.68
2023-04-08T05:00:57.173Z,16.35
2023-04-08T05:03:24.292Z,16.45
2023-04-08T05:05:54.904Z,16.70
2023-04-08T05:08:23.452Z,15.40
2023-04-08T05:10:51.456Z,18.02
2023-04-08T05:13:18.734Z,17.50
2023-04-08T05:15:46.303Z,15.85
2023-04-08T05:18:14.167Z,17.42
2023-04-08T05:20:41.172Z,15.25
2023-04-08T05:23:09.098Z,15.82
2023-04-08T05:25:36.366Z,14.85
2023-04-08T05:28:03.898Z,15.50
2023-04-08T05:30:31.519Z,15.75
2023-04-08T05:33:00.399Z,15.50
2023-04-08T05:35:28.635Z,16.10
2023-04-08T05:37:55.670Z,14.00
2023-04-08T05:40:22.604Z,15.40
2023-04-08T05:42:51.194Z,14.45
2023-04-08T05:45:19.433Z,15.50
2023-04-08T05:47:46.745Z,16.52
2023-04-08T05:50:13.912Z,14.98
2023-04-08T05:52:44.913Z,16.83
2023-04-08T05:55:13.273Z,14.35
2023-04-08T05:57:41.844Z,14.25
2023-04-08T06:00:10.809Z,15.63
2023-04-08T06:02:38.980Z,15.63
2023-04-08T06:05:07.333Z,13.90
2023-04-08T06:07:34.874Z,15.57
2023-04-08T06:10:02.973Z,14.80
2023-04-08T06:12:30.301Z,15.45
2023-04-08T06:14:57.408Z,15.02
2023-04-08T06:17:24.821Z,16.25
2023-04-08T06:19:51.844Z,16.67
2023-04-08T06:22:18.829Z,16.70
2023-04-08T06:24:48.164Z,16.17
2023-04-08T06:27:16.771Z,18.00
2023-04-08T06:29:43.919Z,16.05
2023-04-08T06:32:11.528Z,17.13
2023-04-08T06:34:38.901Z,17.42
2023-04-08T06:37:08.983Z,16.67
2023-04-08T06:39:41.786Z,17.67
2023-04-08T06:42:10.092Z,19.92
2023-04-08T06:44:58.644Z,20.02
2023-04-08T06:47:25.687Z,21.00
2023-04-08T06:49:52.952Z,20.73
2023-04-08T06:52:19.994Z,19.88
2023-04-08T06:54:49.485Z,18.27
2023-04-08T06:57:16.838Z,19.77
2023-04-08T06:59:43.862Z,18.33
2023-04-08T07:02:12.624Z,19.85
2023-04-08T07:04:39.679Z,17.70
2023-04-08T07:07:07.423Z,19.70
2023-04-08T07:09:35.430Z,20.08
2023-04-08T07:12:04.441Z,19.70
2023-04-08T07:14:31.895Z,18.58
2023-04-08T07:16:59.233Z,18.00
2023-04-08T07:19:27.564Z,17.80
2023-04-08T07:21:54.708Z,16.10
2023-04-08T07:24:22.978Z,17.73
2023-04-08T07:26:50.151Z,17.65
2023-04-08T07:29:17.295Z,16.63
2023-04-08T07:31:44.843Z,17.38
2023-04-08T07:34:12.127Z,17.30
2023-04-08T07:36:39.355Z,16.45
2023-04-08T07:39:06.497Z,16.30
2023-04-08T07:41:34.224Z,16.15
2023-04-08T07:44:01.199Z,17.23
2023-04-08T07:46:28.240Z,16.38
2023-04-08T07:48:55.634Z,16.15
2023-04-08T07:51:23.200Z,15.55
2023-04-08T07:53:52.005Z,15.82
2023-04-08T07:56:18.969Z,16.35
2023-04-08T07:58:47.180Z,13.55
2023-04-08T08:01:20.316Z,13.85
2023-04-08T08:03:48.622Z,12.70
2023-04-08T08:06:16.089Z,13.48
2023-04-08T08:08:43.502Z,15.65
2023-04-08T08:11:10.651Z,13.73
2023-04-08T08:13:37.664Z,14.45
2023-04-08T08:16:08.982Z,12.77
2023-04-08T08:18:37.450Z,14.00
2023-04-08T08:21:04.793Z,13.07
2023-04-08T08:23:32.030Z,11.57
2023-04-08T08:26:07.319Z,11.88
2023-04-08T08:28:34.458Z,8.93
2023-04-08T08:31:02.506Z,10.02
2023-04-08T08:33:30.811Z,12.57
2023-04-08T08:35:58.461Z,10.32
2023-04-08T08:38:27.797Z,8.93
2023-04-08T08:40:59.069Z,7.53
2023-04-08T08:43:27.302Z,9.32
2023-04-08T08:45:55.442Z,9.52
2023-04-08T08:48:22.419Z,9.43
2023-04-08T08:50:49.367Z,9.82
2023-04-08T08:53:16.540Z,11.15
2023-04-08T08:56:13.548Z,13.50
2023-04-08T08:58:31.010Z,11.50
2023-04-08T09:00:58.021Z,12.25
2023-04-08T09:03:30.649Z,12.50
2023-04-08T09:06:02.357Z,13.20
2023-04-08T09:08:29.284Z,11.32
2023-04-08T09:11:11.532Z,11.70
2023-04-08T09:13:40.019Z,10.03
2023-04-08T09:16:09.327Z,9.57
2023-04-08T09:18:38.342Z,9.63
2023-04-08T09:21:06.862Z,10.95
2023-04-08T09:23:42.711Z,10.63
2023-04-08T09:26:16.555Z,10.88
2023-04-08T09:28:57.877Z,10.23
2023-04-08T09:31:27.865Z,10.73
2023-04-08T09:33:57.481Z,11.65
2023-04-08T09:36:27.064Z,9.85
2023-04-08T09:38:55.616Z,9.27
2023-04-08T09:41:28.377Z,8.75
2023-04-08T09:43:57.134Z,9.02
2023-04-08T09:46:36.616Z,8.20
2023-04-08T09:49:11.142Z,8.23
2023-04-08T09:51:53.451Z,9.75
2023-04-08T09:54:23.358Z,10.65
2023-04-08T09:57:01.931Z,8.63
2023-04-08T09:59:34.784Z,10.63
2023-04-08T10:02:07.599Z,10.80
2023-04-08T10:04:39.309Z,11.93
2023-04-08T10:07:08.590Z,11.30
2023-04-08T10:09:36.156Z,11.02
2023-04-08T10:12:04.762Z,10.65
2023-04-08T10:14:33.351Z,11.18
2023-04-08T10:17:27.607Z,12.38
2023-04-08T10:19:55.005Z,10.82
2023-04-08T10:22:34.280Z,11.50
2023-04-08T10:25:19.316Z,10.95
2023-04-08T10:27:46.624Z,11.18
2023-04-08T10:30:28.682Z,11.52
2023-04-08T10:32:57.639Z,11.30
2023-04-08T10:35:37.656Z,10.20
2023-04-08T10:38:04.600Z,11.68
2023-04-08T10:40:39.147Z,11.10
2023-04-08T10:43:06.175Z,10.98
2023-04-08T10:45:33.470Z,12.73
2023-04-08T10:48:22.583Z,11.75
2023-04-08T10:51:04.031Z,11.25
2023-04-08T10:53:35.716Z,10.05
2023-04-08T10:56:08.740Z,10.85
2023-04-08T10:58:47.322Z,9.05
2023-04-08T11:01:14.361Z,9.50
2023-04-08T11:03:43.362Z,10.88
2023-04-08T11:06:11.231Z,13.27
2023-04-08T11:08:38.900Z,11.13
2023-04-08T11:11:11.269Z,11.88
2023-04-08T11:13:51.994Z,14.07
2023-04-08T11:16:22.994Z,12.23
2023-04-08T11:18:51.601Z,11.52
2023-04-08T11:21:18.788Z,11.88
2023-04-08T11:23:46.529Z,11.93
2023-04-08T11:26:15.627Z,12.40
2023-04-08T11:28:45.692Z,10.85
2023-04-08T11:31:13.489Z,11.98
2023-04-08T11:33:48.954Z,12.82
2023-04-08T11:36:21.741Z,13.20
2023-04-08T11:38:49.135Z,13.57
2023-04-08T11:41:16.827Z,13.73
2023-04-08T11:43:56.059Z,13.63
2023-04-08T11:46:23.893Z,13.13
2023-04-08T11:49:08.648Z,13.95
2023-04-08T11:51:53.568Z,13.45
2023-04-08T11:54:32.143Z,13.43
2023-04-08T11:57:01.240Z,14.80
2023-04-08T11:59:29.602Z,14.63
2023-04-08T12:01:57.276Z,15.40
2023-04-08T12:04:24.601Z,15.73
2023-04-08T12:06:53.481Z,16.67
2023-04-08T12:09:20.910Z,16.98
2023-04-08T12:11:48.367Z,15.50
2023-04-08T12:14:16.506Z,15.35
2023-04-08T12:16:43.474Z,17.77
2023-04-08T12:19:10.724Z,17.10
2023-04-08T12:21:38.326Z,16.08
2023-04-08T12:24:05.587Z,16.48
2023-04-08T12:26:32.509Z,15.70
2023-04-08T12:28:59.418Z,15.55
2023-04-08T12:31:27.972Z,15.70
2023-04-08T12:33:55.274Z,15.93
2023-04-08T12:36:22.367Z,16.70
2023-04-08T12:38:49.734Z,16.05
2023-04-08T12:41:17.131Z,16.73
2023-04-08T12:43:44.044Z,15.68
2023-04-08T12:46:11.039Z,15.77
2023-04-08T12:48:38.030Z,15.00
2023-04-08T12:51:05.038Z,14.77
2023-04-08T12:53:31.990Z,15.57
2023-04-08T12:56:02.594Z,13.38
2023-04-08T12:58:29.544Z,13.90
2023-04-08T13:00:58.081Z,14.40
2023-04-08T13:03:25.276Z,14.13
2023-04-08T13:05:52.406Z,13.77
2023-04-08T13:08:19.393Z,14.38
2023-04-08T13:10:46.378Z,13.07
2023-04-08T13:13:14.342Z,13.10
2023-04-08T13:15:41.434Z,13.63
2023-04-08T13:18:08.850Z,14.63
2023-04-08T13:20:36.773Z,11.70
2023-04-08T13:23:03.845Z,11.93
2023-04-08T13:25:31.231Z,11.95
2023-04-08T13:27:58.237Z,11.95
2023-04-08T13:30:25.340Z,11.75
2023-04-08T13:32:52.450Z,11.73
2023-04-08T13:35:20.193Z,11.30
2023-04-08T13:37:47.744Z,11.73
2023-04-08T13:40:14.785Z,10.40
2023-04-08T13:42:44.160Z,11.23
2023-04-08T13:45:11.580Z,11.13
2023-04-08T13:47:38.886Z,11.45
2023-04-08T13:50:07.792Z,10.68
2023-04-08T13:52:34.916Z,11.60
2023-04-08T13:55:02.000Z,10.60
2023-04-08T13:57:28.947Z,12.35
2023-04-08T13:59:55.947Z,9.70
2023-04-08T14:02:24.682Z,10.32
2023-04-08T14:04:52.608Z,9.60
2023-04-08T14:07:19.989Z,11.38
2023-04-08T14:09:47.062Z,9.98
2023-04-08T14:12:13.943Z,10.98
2023-04-08T14:14:40.950Z,10.93
2023-04-08T14:17:09.114Z,10.82
2023-04-08T14:19:36.470Z,10.23
2023-04-08T14:22:03.651Z,10.85
2023-04-08T14:24:30.815Z,10.52
2023-04-08T14:26:57.988Z,11.15
2023-04-08T14:29:26.506Z,10.85
2023-04-08T14:31:54.602Z,10.20
2023-04-08T14:34:21.558Z,9.95
2023-04-08T14:36:51.893Z,10.93
2023-04-08T14:39:18.859Z,10.02
2023-04-08T14:41:47.966Z,10.88
2023-04-08T14:44:14.942Z,10.57
2023-04-08T14:46:42.143Z,10.88
2023-04-08T14:49:10.429Z,10.73
2023-04-08T14:51:38.126Z,10.80
2023-04-08T14:54:05.848Z,10.15
2023-04-08T14:56:32.852Z,11.05
2023-04-08T14:59:00.540Z,10.25
2023-04-08T15:01:29.003Z,10.68
2023-04-08T15:03:56.226Z,10.95
2023-04-08T15:06:23.714Z,10.63
2023-04-08T15:08:50.839Z,9.25
2023-04-08T15:11:20.865Z,8.75
2023-04-08T15:13:48.268Z,7.75
2023-04-08T15:16:15.701Z,8.95
2023-04-08T15:18:43.261Z,9.27
2023-04-08T15:21:13.596Z,9.38
2023-04-08T15:23:42.211Z,8.93
2023-04-08T15:26:11.404Z,8.52
2023-04-08T15:28:40.427Z,7.72
2023-04-08T15:31:07.477Z,8.60
2023-04-08T15:33:34.507Z,8.18
2023-04-08T15:36:04.171Z,7.57
2023-04-08T15:38:33.713Z,8.18
2023-04-08T15:41:04.308Z,8.25
2023-04-08T15:43:31.257Z,9.00
2023-04-08T15:45:58.189Z,9.07
2023-04-08T15:48:25.303Z,7.78
2023-04-08T15:50:52.486Z,8.70
2023-04-08T15:53:19.500Z,8.20
2023-04-08T15:55:47.687Z,8.32
2023-04-08T15:58:17.956Z,8.93
2023-04-08T16:00:44.863Z,9.20
2023-04-08T16:03:12.959Z,9.70
2023-04-08T16:05:41.717Z,9.82
2023-04-08T16:08:08.982Z,7.75
2023-04-08T16:10:36.026Z,10.55
2023-04-08T16:13:03.611Z,8.93
2023-04-08T16:15:30.601Z,8.75
2023-04-08T16:17:57.715Z,10.38
2023-04-08T16:20:26.391Z,9.82
2023-04-08T16:23:00.211Z,9.43
2023-04-08T16:25:28.469Z,9.35
2023-04-08T16:27:55.627Z,9.68
2023-04-08T16:30:22.909Z,9.00
2023-04-08T16:32:50.203Z,9.68
2023-04-08T16:35:20.484Z,8.70
2023-04-08T16:37:47.436Z,9.20
2023-04-08T16:40:14.349Z,9.90
2023-04-08T16:42:42.042Z,10.77
2023-04-08T16:45:09.288Z,9.25
2023-04-08T16:47:36.284Z,10.00
2023-04-08T16:50:03.400Z,10.02
2023-04-08T16:52:30.932Z,11.07
2023-04-08T16:54:58.991Z,10.20
2023-04-08T16:57:26.375Z,9.88
2023-04-08T16:59:53.362Z,10.00
2023-04-08T17:02:21.719Z,9.55
2023-04-08T17:04:52.101Z,9.30
2023-04-08T17:07:19.345Z,9.25
2023-04-08T17:09:51.581Z,9.25
2023-04-08T17:14:45.620Z,9.35
2023-04-08T17:17:12.552Z,10.05
2023-04-08T17:19:39.882Z,10.55
2023-04-08T17:22:06.968Z,9.90
2023-04-08T17:24:33.947Z,10.18
2023-04-08T17:27:00.946Z,10.35
2023-04-08T17:29:27.962Z,13.75
2023-04-08T17:31:54.870Z,11.75
2023-04-08T17:34:22.119Z,14.27
2023-04-08T17:36:49.107Z,10.30
2023-04-08T17:39:18.837Z,10.60
2023-04-08T17:41:46.259Z,10.32
2023-04-08T17:44:13.270Z,11.02
2023-04-08T17:46:40.159Z,12.63
2023-04-08T17:49:07.254Z,12.43
2023-04-08T17:51:34.412Z,12.95
2023-04-08T17:54:01.370Z,13.38
2023-04-08T17:56:28.341Z,13.48
2023-04-08T17:58:55.587Z,13.55
2023-04-08T18:01:23.838Z,14.57
2023-04-08T18:03:52.058Z,15.32
2023-04-08T18:06:19.164Z,15.30
2023-04-08T18:08:46.067Z,15.05
2023-04-08T18:11:13.070Z,16.23
2023-04-08T18:13:40.283Z,15.60
2023-04-08T18:16:15.199Z,16.00
2023-04-08T18:18:42.135Z,14.55
2023-04-08T18:21:09.086Z,15.45
2023-04-08T18:23:37.622Z,15.75
2023-04-08T18:26:05.344Z,15.18
2023-04-08T18:28:32.327Z,15.15
2023-04-08T18:30:59.266Z,14.85
2023-04-08T18:33:27.231Z,15.05
2023-04-08T18:35:54.663Z,16.38
2023-04-08T18:38:22.107Z,15.75
2023-04-08T18:40:50.471Z,15.20
2023-04-08T18:43:17.399Z,15.43
2023-04-08T18:45:44.683Z,14.48
2023-04-08T18:48:12.510Z,14.68
2023-04-08T18:50:40.292Z,13.95
2023-04-08T18:53:08.334Z,14.65
2023-04-08T18:55:38.660Z,13.52
2023-04-08T18:58:05.751Z,13.40
2023-04-08T19:00:33.329Z,13.45
2023-04-08T19:03:00.469Z,14.25
2023-04-08T19:05:27.496Z,13.48
2023-04-08T19:07:54.599Z,13.32
2023-04-08T19:10:24.750Z,14.02
2023-04-08T19:12:51.726Z,12.93
2023-04-08T19:15:18.744Z,13.55
2023-04-08T19:17:46.545Z,13.30
2023-04-08T19:20:13.593Z,12.77
2023-04-08T19:22:40.918Z,12.35
2023-04-08T19:25:08.102Z,12.40
2023-04-08T19:27:36.023Z,11.13
2023-04-08T19:30:02.945Z,11.13
2023-04-08T19:32:29.962Z,10.73
2023-04-08T19:34:58.275Z,10.80
2023-04-08T19:37:27.074Z,11.38
2023-04-08T19:39:54.077Z,11.70
2023-04-08T19:42:21.056Z,10.07
2023-04-08T19:44:48.801Z,10.23
2023-04-08T19:47:17.686Z,10.23
2023-04-08T19:49:44.756Z,10.70
2023-04-08T19:52:12.292Z,11.10
2023-04-08T19:54:41.236Z,11.10
2023-04-08T19:57:11.708Z,11.02
2023-04-08T19:59:40.379Z,11.05
2023-04-08T20:02:07.757Z,10.85
2023-04-08T20:04:34.758Z,11.90
2023-04-08T20:07:03.764Z,10.52
2023-04-08T20:09:32.761Z,11.23
2023-04-08T20:12:06.531Z,10.30
2023-04-08T20:14:35.797Z,10.70
2023-04-08T20:17:04.640Z,10.68
2023-04-08T20:19:31.526Z,10.88
2023-04-08T20:21:58.509Z,10.98
2023-04-08T20:24:25.584Z,11.05
2023-04-08T20:26:52.599Z,10.98
2023-04-08T20:29:19.831Z,10.70
2023-04-08T20:31:47.391Z,10.50
2023-04-08T20:34:14.442Z,11.23
2023-04-08T20:36:41.368Z,11.05
2023-04-08T20:39:11.873Z,10.90
2023-04-08T20:41:38.955Z,12.13
2023-04-08T20:44:09.410Z,12.38
2023-04-08T20:46:38.215Z,12.32
2023-04-08T20:49:06.686Z,11.20
2023-04-08T20:51:33.951Z,12.77
2023-04-08T20:54:01.110Z,11.70
2023-04-08T20:56:28.403Z,11.77
2023-04-08T20:58:58.239Z,12.18
2023-04-08T21:01:27.234Z,13.10
2023-04-08T21:03:56.169Z,11.88
2023-04-08T21:06:23.679Z,12.82
2023-04-08T21:08:52.217Z,11.40
2023-04-08T21:11:21.173Z,12.25
2023-04-08T21:13:49.232Z,13.32
2023-04-08T21:16:17.628Z,13.80
2023-04-08T21:18:44.717Z,13.10
2023-04-08T21:21:11.949Z,13.35
2023-04-08T21:23:38.942Z,13.02
2023-04-08T21:26:13.833Z,14.18
2023-04-08T21:28:41.211Z,15.07
2023-04-08T21:31:12.798Z,13.68
2023-04-08T21:33:40.169Z,14.32
2023-04-08T21:36:07.352Z,13.63
2023-04-08T21:38:36.151Z,14.88
2023-04-08T21:41:03.045Z,13.90
2023-04-08T21:43:30.110Z,14.65
2023-04-08T21:45:58.595Z,14.85
2023-04-08T21:48:25.720Z,14.60
2023-04-08T21:50:53.455Z,14.02
2023-04-08T21:53:22.470Z,15.15
2023-04-08T21:55:49.628Z,15.10
2023-04-08T21:58:17.309Z,15.90
2023-04-08T22:00:44.853Z,16.52
2023-04-08T22:03:12.280Z,15.32
2023-04-08T22:05:39.808Z,16.65
2023-04-08T22:08:06.962Z,16.75
2023-04-08T22:10:33.906Z,16.75
2023-04-08T22:13:01.209Z,17.67
2023-04-08T22:15:28.450Z,16.67
2023-04-08T22:17:56.081Z,18.00
2023-04-08T22:20:23.427Z,17.98
2023-04-08T22:22:50.392Z,17.67
2023-04-08T22:25:17.419Z,19.00
2023-04-08T22:27:46.867Z,19.15
2023-04-08T22:30:15.574Z,20.10
2023-04-08T22:32:42.731Z,19.77
2023-04-08T22:35:12.799Z,20.73
2023-04-08T22:37:40.465Z,20.90
2023-04-08T22:40:09.197Z,21.15
2023-04-08T22:42:36.586Z,21.30
2023-04-08T22:45:05.853Z,20.63
2023-04-08T22:47:32.877Z,22.00
2023-04-08T22:49:59.867Z,22.83
2023-04-08T22:52:27.900Z,22.05
2023-04-08T22:54:55.587Z,22.55
2023-04-08T22:57:23.286Z,24.88
2023-04-08T22:59:51.533Z,24.23
2023-04-08T23:02:20.111Z,24.13
2023-04-08T23:04:47.175Z,25.02
2023-04-08T23:07:14.136Z,24.55
2023-04-08T23:09:41.101Z,24.77
2023-04-08T23:12:08.060Z,23.42
2023-04-08T23:14:34.980Z,23.45
2023-04-08T23:17:04.256Z,22.13
2023-04-08T23:19:32.492Z,24.05
2023-04-08T23:21:59.411Z,22.50
2023-04-08T23:24:26.763Z,20.85
2023-04-08T23:26:53.780Z,19.77
2023-04-08T23:29:21.828Z,19.83
2023-04-08T23:31:48.723Z,19.48
2023-04-08T23:34:15.964Z,19.20
2023-04-08T23:36:42.860Z,21.30
2023-04-08T23:39:09.798Z,20.52
2023-04-08T23:41:36.856Z,20.50
2023-04-08T23:44:03.757Z,19.67
2023-04-08T23:46:31.779Z,21.20
2023-04-08T23:48:58.918Z,20.23
2023-04-08T23:51:26.716Z,20.83
2023-04-08T23:53:53.774Z,20.63
2023-04-08T23:56:20.952Z,21.23
2023-04-08T23:58:47.929Z,20.30
